createdAt,value
2019-05-16T00:00:40.384Z,12.47
2019-05-16T00:01:39.004Z,12.41
2019-05-16T00:02:39.135Z,12.47
2019-05-16T00:03:39.262Z,12.33
2019-05-16T00:04:39.463Z,12.43
2019-05-16T00:05:50.423Z,12.44
2019-05-16T00:06:39.652Z,12.41
2019-05-16T00:07:39.785Z,12.41
2019-05-16T00:08:39.917Z,12.36
2019-05-16T00:09:40.038Z,12.40
2019-05-16T00:10:40.167Z,12.40
2019-05-16T00:11:40.288Z,12.36
2019-05-16T00:12:40.431Z,12.44
2019-05-16T00:13:40.548Z,12.29
2019-05-16T00:14:40.693Z,12.36
2019-05-16T00:15:40.815Z,12.44
2019-05-16T00:16:40.942Z,12.40
2019-05-16T00:17:41.075Z,12.38
2019-05-16T00:18:41.218Z,12.46
2019-05-16T00:19:41.346Z,12.38
2019-05-16T00:20:41.471Z,12.43
2019-05-16T00:21:41.598Z,12.47
2019-05-16T00:22:41.754Z,12.41
2019-05-16T00:23:41.876Z,12.43
2019-05-16T00:24:42.000Z,12.41
2019-05-16T00:25:42.207Z,12.35
2019-05-16T00:26:42.264Z,12.38
2019-05-16T00:27:42.393Z,12.33
2019-05-16T00:28:42.531Z,12.47
2019-05-16T00:29:42.648Z,12.41
2019-05-16T00:30:42.780Z,12.44
2019-05-16T00:31:42.921Z,12.43
2019-05-16T00:32:43.045Z,12.35
2019-05-16T00:33:43.176Z,12.28
2019-05-16T00:34:43.305Z,12.41
2019-05-16T00:35:43.445Z,12.41
2019-05-16T00:36:43.563Z,12.33
2019-05-16T00:37:43.694Z,12.33
2019-05-16T00:38:43.854Z,12.44
2019-05-16T00:39:43.975Z,12.26
2019-05-16T00:40:44.097Z,12.38
2019-05-16T00:41:44.230Z,12.40
2019-05-16T00:42:44.369Z,12.28
2019-05-16T00:43:44.495Z,12.40
2019-05-16T00:44:44.632Z,12.43
2019-05-16T00:45:44.756Z,12.30
2019-05-16T00:46:44.896Z,12.33
2019-05-16T00:47:45.002Z,12.40
2019-05-16T00:48:45.133Z,12.33
2019-05-16T00:49:45.266Z,12.28
2019-05-16T00:50:45.394Z,12.33
2019-05-16T00:51:45.528Z,12.18
2019-05-16T00:52:45.649Z,12.32
2019-05-16T00:53:45.771Z,12.28
2019-05-16T00:54:45.902Z,12.22
2019-05-16T00:55:47.891Z,12.33
2019-05-16T00:56:48.605Z,12.32
2019-05-16T00:57:48.123Z,12.22
2019-05-16T00:58:48.268Z,12.32
2019-05-16T00:59:48.501Z,12.25
2019-05-16T01:00:49.393Z,12.17
2019-05-16T01:01:49.944Z,12.29
2019-05-16T01:02:48.571Z,12.26
2019-05-16T01:03:48.333Z,12.32
2019-05-16T01:04:48.743Z,12.33
2019-05-16T01:05:48.069Z,12.23
2019-05-16T01:06:48.448Z,12.25
2019-05-16T01:07:48.044Z,12.23
2019-05-16T01:08:48.737Z,12.25
2019-05-16T01:09:48.783Z,12.23
2019-05-16T01:10:51.117Z,12.18
2019-05-16T01:11:48.675Z,12.22
2019-05-16T01:12:48.274Z,12.22
2019-05-16T01:13:48.806Z,12.23
2019-05-16T01:14:48.524Z,12.22
2019-05-16T01:15:48.873Z,12.25
2019-05-16T01:16:48.931Z,12.26
2019-05-16T01:17:48.926Z,12.25
2019-05-16T01:18:49.056Z,12.22
2019-05-16T01:19:49.203Z,12.28
2019-05-16T01:20:49.327Z,12.23
2019-05-16T01:21:49.453Z,12.21
2019-05-16T01:22:49.576Z,12.23
2019-05-16T01:23:49.750Z,12.22
2019-05-16T01:24:49.871Z,12.18
2019-05-16T01:25:49.986Z,12.22
2019-05-16T01:26:50.127Z,12.17
2019-05-16T01:27:50.249Z,12.18
2019-05-16T01:28:50.380Z,12.25
2019-05-16T01:29:50.508Z,12.21
2019-05-16T01:30:50.654Z,12.21
2019-05-16T01:31:50.764Z,12.18
2019-05-16T01:32:50.897Z,12.08
2019-05-16T01:33:51.032Z,12.17
2019-05-16T01:34:51.156Z,12.11
2019-05-16T01:35:51.285Z,12.15
2019-05-16T01:36:51.416Z,12.13
2019-05-16T01:37:51.538Z,12.07
2019-05-16T01:38:51.676Z,12.00
2019-05-16T01:39:51.804Z,12.11
2019-05-16T01:40:51.931Z,12.11
2019-05-16T01:41:52.061Z,12.13
2019-05-16T01:42:52.209Z,12.15
2019-05-16T01:43:52.322Z,12.13
2019-05-16T01:44:52.444Z,12.07
2019-05-16T01:45:52.573Z,12.23
2019-05-16T01:46:52.714Z,12.13
2019-05-16T01:47:52.831Z,12.13
2019-05-16T01:48:52.959Z,12.18
2019-05-16T01:49:53.103Z,12.08
2019-05-16T01:50:53.223Z,12.13
2019-05-16T01:51:53.346Z,12.08
2019-05-16T01:52:53.504Z,12.23
2019-05-16T01:53:53.633Z,12.13
2019-05-16T01:54:53.761Z,12.13
2019-05-16T01:55:53.898Z,12.11
2019-05-16T01:56:54.027Z,12.05
2019-05-16T01:57:54.155Z,12.11
2019-05-16T01:58:54.283Z,12.13
2019-05-16T01:59:54.435Z,12.11
2019-05-16T02:01:10.486Z,12.15
2019-05-16T02:01:54.679Z,12.17
2019-05-16T02:02:54.828Z,12.17
2019-05-16T02:03:54.946Z,12.08
2019-05-16T02:04:55.070Z,12.08
2019-05-16T02:05:55.203Z,12.10
2019-05-16T02:06:55.344Z,12.13
2019-05-16T02:07:55.448Z,12.22
2019-05-16T02:08:57.851Z,12.17
2019-05-16T02:09:55.709Z,12.08
2019-05-16T02:10:58.169Z,12.15
2019-05-16T02:11:55.973Z,12.23
2019-05-16T02:12:58.024Z,12.07
2019-05-16T02:13:58.448Z,12.15
2019-05-16T02:14:58.567Z,12.18
2019-05-16T02:15:56.500Z,12.18
2019-05-16T02:16:58.075Z,12.18
2019-05-16T02:17:58.694Z,12.14
2019-05-16T02:18:58.746Z,12.10
2019-05-16T02:19:57.791Z,12.15
2019-05-16T02:20:58.654Z,12.14
2019-05-16T02:21:59.468Z,12.10
2019-05-16T02:22:58.568Z,12.14
2019-05-16T02:23:58.505Z,12.13
2019-05-16T02:24:58.535Z,12.13
2019-05-16T02:25:58.068Z,12.07
2019-05-16T02:26:58.899Z,12.10
2019-05-16T02:27:58.983Z,12.10
2019-05-16T02:29:00.667Z,12.08
2019-05-16T02:29:59.985Z,12.04
2019-05-16T02:31:01.325Z,12.10
2019-05-16T02:32:01.584Z,12.10
2019-05-16T02:33:01.067Z,12.08
2019-05-16T02:34:01.267Z,12.14
2019-05-16T02:35:01.143Z,12.07
2019-05-16T02:36:01.697Z,12.23
2019-05-16T02:37:18.323Z,12.11
2019-05-16T02:38:01.072Z,12.22
2019-05-16T02:39:01.836Z,12.03
2019-05-16T02:40:01.384Z,12.18
2019-05-16T02:41:02.884Z,12.11
2019-05-16T02:42:01.052Z,12.11
2019-05-16T02:43:01.596Z,12.13
2019-05-16T02:44:01.243Z,12.07
2019-05-16T02:45:02.468Z,12.07
2019-05-16T02:46:01.397Z,12.05
2019-05-16T02:47:01.573Z,12.08
2019-05-16T02:48:01.456Z,12.10
2019-05-16T02:49:01.036Z,12.11
2019-05-16T02:50:01.339Z,12.08
2019-05-16T02:51:01.877Z,12.04
2019-05-16T02:52:01.525Z,12.10
2019-05-16T02:53:01.794Z,12.08
2019-05-16T02:54:01.610Z,12.00
2019-05-16T02:55:01.637Z,12.00
2019-05-16T02:56:01.922Z,12.00
2019-05-16T02:57:01.891Z,11.91
2019-05-16T02:58:02.045Z,11.91
2019-05-16T02:59:02.170Z,11.95
2019-05-16T03:00:02.464Z,11.91
2019-05-16T03:01:02.421Z,11.99
2019-05-16T03:02:02.587Z,11.97
2019-05-16T03:03:02.705Z,11.97
2019-05-16T03:04:02.829Z,11.97
2019-05-16T03:05:02.965Z,12.00
2019-05-16T03:06:03.115Z,11.99
2019-05-16T03:07:03.224Z,11.91
2019-05-16T03:08:03.345Z,12.00
2019-05-16T03:09:05.357Z,11.97
2019-05-16T03:10:03.603Z,11.99
2019-05-16T03:11:03.727Z,11.96
2019-05-16T03:12:03.865Z,11.93
2019-05-16T03:13:03.984Z,11.95
2019-05-16T03:14:04.120Z,11.97
2019-05-16T03:15:04.243Z,11.93
2019-05-16T03:16:04.375Z,11.97
2019-05-16T03:17:04.506Z,11.91
2019-05-16T03:18:04.787Z,11.85
2019-05-16T03:19:04.767Z,11.91
2019-05-16T03:20:04.892Z,11.89
2019-05-16T03:21:05.026Z,11.93
2019-05-16T03:22:05.153Z,11.99
2019-05-16T03:23:05.282Z,11.88
2019-05-16T03:24:05.410Z,11.93
2019-05-16T03:25:05.574Z,11.79
2019-05-16T03:26:05.703Z,11.87
2019-05-16T03:27:05.828Z,11.84
2019-05-16T03:28:05.958Z,11.91
2019-05-16T03:29:06.107Z,11.93
2019-05-16T03:30:06.224Z,11.95
2019-05-16T03:31:06.533Z,11.95
2019-05-16T03:32:06.476Z,11.85
2019-05-16T03:33:06.621Z,11.87
2019-05-16T03:34:07.976Z,11.95
2019-05-16T03:35:06.866Z,11.88
2019-05-16T03:36:07.001Z,11.95
2019-05-16T03:37:07.156Z,11.84
2019-05-16T03:38:07.253Z,11.85
2019-05-16T03:39:10.500Z,11.84
2019-05-16T03:40:07.542Z,11.88
2019-05-16T03:41:07.653Z,11.79
2019-05-16T03:42:07.784Z,11.79
2019-05-16T03:43:07.931Z,11.84
2019-05-16T03:44:11.081Z,11.85
2019-05-16T03:45:10.861Z,11.84
2019-05-16T03:46:11.451Z,11.85
2019-05-16T03:47:11.256Z,11.82
2019-05-16T03:48:11.633Z,11.91
2019-05-16T03:49:11.383Z,11.84
2019-05-16T03:50:11.084Z,11.87
2019-05-16T03:51:11.433Z,11.77
2019-05-16T03:52:11.351Z,11.91
2019-05-16T03:53:11.609Z,11.80
2019-05-16T03:54:12.415Z,11.77
2019-05-16T03:55:11.036Z,11.71
2019-05-16T03:56:11.170Z,11.84
2019-05-16T03:57:11.575Z,11.70
2019-05-16T03:58:11.604Z,11.84
2019-05-16T03:59:10.929Z,11.80
2019-05-16T04:00:11.733Z,11.85
2019-05-16T04:01:11.391Z,11.87
2019-05-16T04:02:10.912Z,11.77
2019-05-16T04:03:11.641Z,11.77
2019-05-16T04:04:11.809Z,11.76
2019-05-16T04:05:11.341Z,11.74
2019-05-16T04:06:11.905Z,11.82
2019-05-16T04:07:11.189Z,11.80
2019-05-16T04:08:19.000Z,11.76
2019-05-16T04:09:12.534Z,11.87
2019-05-16T04:10:11.551Z,11.87
2019-05-16T04:11:11.934Z,11.80
2019-05-16T04:12:11.801Z,11.85
2019-05-16T04:13:11.849Z,11.85
2019-05-16T04:14:12.018Z,11.85
2019-05-16T04:15:12.105Z,11.79
2019-05-16T04:16:12.300Z,11.88
2019-05-16T04:17:12.390Z,11.84
2019-05-16T04:18:12.526Z,11.84
2019-05-16T04:19:12.677Z,11.82
2019-05-16T04:20:12.812Z,11.87
2019-05-16T04:21:12.939Z,11.87
2019-05-16T04:22:13.068Z,11.82
2019-05-16T04:23:13.194Z,11.87
2019-05-16T04:24:13.328Z,11.79
2019-05-16T04:25:13.455Z,11.88
2019-05-16T04:26:13.589Z,11.87
2019-05-16T04:27:13.713Z,11.87
2019-05-16T04:28:13.842Z,11.87
2019-05-16T04:29:13.971Z,11.87
2019-05-16T04:30:14.100Z,11.84
2019-05-16T04:31:14.233Z,11.77
2019-05-16T04:32:14.365Z,11.82
2019-05-16T04:33:14.487Z,11.76
2019-05-16T04:34:14.618Z,11.80
2019-05-16T04:35:14.741Z,11.88
2019-05-16T04:36:14.877Z,11.82
2019-05-16T04:37:15.012Z,11.87
2019-05-16T04:38:30.161Z,11.84
2019-05-16T04:39:15.271Z,11.79
2019-05-16T04:40:15.399Z,11.91
2019-05-16T04:41:15.539Z,11.80
2019-05-16T04:42:15.672Z,11.80
2019-05-16T04:43:15.793Z,11.76
2019-05-16T04:44:15.921Z,11.77
2019-05-16T04:45:16.053Z,11.80
2019-05-16T04:46:16.196Z,11.79
2019-05-16T04:47:16.310Z,11.79
2019-05-16T04:48:16.438Z,11.79
2019-05-16T04:49:16.574Z,11.69
2019-05-16T04:50:16.696Z,11.76
2019-05-16T04:51:16.834Z,11.71
2019-05-16T04:52:16.948Z,11.61
2019-05-16T04:53:17.076Z,11.69
2019-05-16T04:54:17.216Z,11.71
2019-05-16T04:55:20.783Z,11.59
2019-05-16T04:56:17.464Z,11.67
2019-05-16T04:57:20.635Z,11.61
2019-05-16T04:58:22.598Z,11.61
2019-05-16T04:59:20.727Z,11.70
2019-05-16T05:00:21.072Z,11.51
2019-05-16T05:01:21.192Z,11.69
2019-05-16T05:02:21.086Z,11.61
2019-05-16T05:03:20.890Z,11.59
2019-05-16T05:04:21.125Z,11.56
2019-05-16T05:05:21.504Z,11.56
2019-05-16T05:06:20.799Z,11.54
2019-05-16T05:07:20.709Z,11.56
2019-05-16T05:08:22.077Z,11.52
2019-05-16T05:09:20.921Z,11.55
2019-05-16T05:10:20.692Z,11.56
2019-05-16T05:11:21.481Z,11.58
2019-05-16T05:12:20.777Z,11.66
2019-05-16T05:13:22.103Z,11.69
2019-05-16T05:14:21.246Z,11.67
2019-05-16T05:15:21.228Z,11.61
2019-05-16T05:16:20.457Z,11.69
2019-05-16T05:17:21.120Z,11.71
2019-05-16T05:18:21.165Z,11.76
2019-05-16T05:19:20.476Z,11.79
2019-05-16T05:20:21.180Z,11.80
2019-05-16T05:21:21.086Z,11.74
2019-05-16T05:22:20.859Z,11.80
2019-05-16T05:23:21.316Z,11.85
2019-05-16T05:24:21.117Z,11.85
2019-05-16T05:25:21.244Z,11.74
2019-05-16T05:26:21.386Z,11.84
2019-05-16T05:27:21.504Z,11.85
2019-05-16T05:28:21.657Z,11.82
2019-05-16T05:29:21.764Z,11.76
2019-05-16T05:30:21.899Z,11.85
2019-05-16T05:31:24.589Z,11.87
2019-05-16T05:32:22.156Z,11.84
2019-05-16T05:33:22.292Z,11.82
2019-05-16T05:34:22.404Z,11.74
2019-05-16T05:35:22.549Z,11.77
2019-05-16T05:36:22.716Z,11.79
2019-05-16T05:37:22.827Z,11.85
2019-05-16T05:38:22.955Z,11.93
2019-05-16T05:39:23.080Z,11.87
2019-05-16T05:40:23.227Z,11.88
2019-05-16T05:41:23.390Z,11.91
2019-05-16T05:42:23.523Z,11.95
2019-05-16T05:43:23.651Z,11.89
2019-05-16T05:44:23.795Z,11.95
2019-05-16T05:45:23.913Z,11.96
2019-05-16T05:46:24.041Z,11.97
2019-05-16T05:47:24.174Z,12.00
2019-05-16T05:48:24.306Z,11.93
2019-05-16T05:49:24.433Z,11.99
2019-05-16T05:50:24.564Z,11.95
2019-05-16T05:51:24.691Z,11.91
2019-05-16T05:52:24.825Z,12.03
2019-05-16T05:53:24.959Z,11.85
2019-05-16T05:54:25.080Z,11.84
2019-05-16T05:55:25.217Z,11.84
2019-05-16T05:56:25.339Z,11.73
2019-05-16T05:57:25.480Z,11.77
2019-05-16T05:58:25.639Z,11.73
2019-05-16T05:59:25.757Z,11.71
2019-05-16T06:00:25.908Z,11.76
2019-05-16T06:01:26.020Z,11.77
2019-05-16T06:02:26.160Z,11.85
2019-05-16T06:03:26.283Z,11.70
2019-05-16T06:04:26.412Z,11.80
2019-05-16T06:05:26.549Z,11.77
2019-05-16T06:06:26.700Z,11.87
2019-05-16T06:07:26.821Z,11.80
2019-05-16T06:08:26.949Z,11.87
2019-05-16T06:09:30.103Z,11.93
2019-05-16T06:10:27.216Z,11.82
2019-05-16T06:11:27.378Z,11.87
2019-05-16T06:12:30.075Z,11.87
2019-05-16T06:13:27.635Z,11.89
2019-05-16T06:14:30.457Z,11.88
2019-05-16T06:15:28.026Z,11.89
2019-05-16T06:16:30.643Z,11.89
2019-05-16T06:17:30.529Z,11.95
2019-05-16T06:18:30.550Z,11.99
2019-05-16T06:19:29.778Z,11.96
2019-05-16T06:20:30.701Z,12.11
2019-05-16T06:21:33.060Z,12.00
2019-05-16T06:22:29.911Z,12.05
2019-05-16T06:23:31.162Z,12.13
2019-05-16T06:24:30.573Z,12.05
2019-05-16T06:25:31.473Z,11.99
2019-05-16T06:26:30.332Z,11.96
2019-05-16T06:27:30.199Z,11.95
2019-05-16T06:28:30.767Z,11.96
2019-05-16T06:29:30.977Z,11.91
2019-05-16T06:30:30.526Z,11.96
2019-05-16T06:31:31.263Z,11.99
2019-05-16T06:32:30.461Z,11.76
2019-05-16T06:33:30.635Z,11.96
2019-05-16T06:34:30.393Z,11.82
2019-05-16T06:35:30.519Z,11.74
2019-05-16T06:36:30.647Z,11.66
2019-05-16T06:37:31.064Z,11.79
2019-05-16T06:38:30.906Z,11.82
2019-05-16T06:39:41.166Z,11.82
2019-05-16T06:40:31.161Z,11.80
2019-05-16T06:41:31.300Z,11.79
2019-05-16T06:42:31.425Z,11.79
2019-05-16T06:43:31.575Z,12.03
2019-05-16T06:44:31.706Z,11.76
2019-05-16T06:45:32.098Z,11.80
2019-05-16T06:46:39.373Z,11.85
2019-05-16T06:47:32.091Z,11.74
2019-05-16T06:48:32.278Z,11.80
2019-05-16T06:49:32.396Z,11.89
2019-05-16T06:50:32.530Z,11.97
2019-05-16T06:51:32.661Z,11.95
2019-05-16T06:52:32.795Z,12.08
2019-05-16T06:53:32.919Z,12.05
2019-05-16T06:54:33.049Z,12.11
2019-05-16T06:55:33.178Z,12.08
2019-05-16T06:56:33.312Z,12.23
2019-05-16T06:57:33.434Z,12.21
2019-05-16T06:58:44.806Z,12.21
2019-05-16T06:59:33.703Z,12.26
2019-05-16T07:00:33.830Z,12.25
2019-05-16T07:01:33.962Z,12.32
2019-05-16T07:02:34.698Z,12.26
2019-05-16T07:03:34.228Z,12.43
2019-05-16T07:04:34.359Z,12.36
2019-05-16T07:05:34.484Z,12.46
2019-05-16T07:06:53.854Z,12.36
2019-05-16T07:07:34.776Z,12.41
2019-05-16T07:08:34.871Z,12.46
2019-05-16T07:09:35.009Z,12.40
2019-05-16T07:10:35.133Z,12.40
2019-05-16T07:11:35.268Z,12.50
2019-05-16T07:12:35.398Z,12.46
2019-05-16T07:13:35.527Z,12.48
2019-05-16T07:14:35.657Z,12.50
2019-05-16T07:15:35.781Z,12.43
2019-05-16T07:16:35.913Z,12.54
2019-05-16T07:17:36.053Z,12.53
2019-05-16T07:18:36.186Z,12.61
2019-05-16T07:19:36.315Z,12.58
2019-05-16T07:20:36.437Z,12.63
2019-05-16T07:21:36.576Z,12.66
2019-05-16T07:22:36.718Z,12.63
2019-05-16T07:23:36.842Z,12.59
2019-05-16T07:24:36.976Z,12.54
2019-05-16T07:25:37.106Z,12.61
2019-05-16T07:26:37.238Z,12.59
2019-05-16T07:27:39.885Z,12.61
2019-05-16T07:28:37.506Z,12.61
2019-05-16T07:29:40.072Z,12.66
2019-05-16T07:30:37.768Z,12.65
2019-05-16T07:31:37.892Z,12.68
2019-05-16T07:32:40.227Z,12.69
2019-05-16T07:33:40.497Z,12.73
2019-05-16T07:34:40.224Z,12.76
2019-05-16T07:35:40.146Z,12.71
2019-05-16T07:36:40.552Z,12.79
2019-05-16T07:37:40.036Z,12.87
2019-05-16T07:38:40.072Z,12.88
2019-05-16T07:39:41.856Z,12.71
2019-05-16T07:40:40.041Z,12.77
2019-05-16T07:41:40.162Z,12.79
2019-05-16T07:42:40.327Z,12.76
2019-05-16T07:43:40.093Z,12.87
2019-05-16T07:44:40.770Z,12.84
2019-05-16T07:45:40.748Z,12.87
2019-05-16T07:46:43.862Z,12.77
2019-05-16T07:47:40.287Z,12.76
2019-05-16T07:48:40.489Z,12.84
2019-05-16T07:49:40.728Z,12.81
2019-05-16T07:50:40.562Z,12.83
2019-05-16T07:51:40.576Z,12.88
2019-05-16T07:52:40.703Z,12.98
2019-05-16T07:53:40.836Z,12.91
2019-05-16T07:54:40.968Z,13.04
2019-05-16T07:55:41.109Z,12.99
2019-05-16T07:56:41.240Z,13.09
2019-05-16T07:57:41.366Z,12.99
2019-05-16T07:58:41.585Z,13.08
2019-05-16T07:59:41.630Z,12.99
2019-05-16T08:00:52.443Z,13.11
2019-05-16T08:01:43.407Z,13.01
2019-05-16T08:02:42.032Z,12.93
2019-05-16T08:03:44.099Z,12.91
2019-05-16T08:04:42.290Z,12.99
2019-05-16T08:05:42.415Z,12.93
2019-05-16T08:06:42.545Z,12.87
2019-05-16T08:07:42.675Z,12.88
2019-05-16T08:08:42.804Z,12.98
2019-05-16T08:09:42.937Z,12.93
2019-05-16T08:10:46.527Z,12.91
2019-05-16T08:11:43.202Z,12.98
2019-05-16T08:12:43.354Z,13.14
2019-05-16T08:13:43.465Z,13.05
2019-05-16T08:14:43.596Z,13.19
2019-05-16T08:15:43.725Z,13.19
2019-05-16T08:16:43.861Z,13.21
2019-05-16T08:17:44.604Z,13.21
2019-05-16T08:18:45.168Z,13.20
2019-05-16T08:19:44.274Z,13.19
2019-05-16T08:20:44.404Z,13.26
2019-05-16T08:21:44.536Z,13.32
2019-05-16T08:22:44.659Z,13.27
2019-05-16T08:23:44.792Z,13.32
2019-05-16T08:24:44.926Z,13.35
2019-05-16T08:25:45.055Z,13.35
2019-05-16T08:26:45.187Z,13.36
2019-05-16T08:27:45.336Z,13.38
2019-05-16T08:28:45.458Z,13.38
2019-05-16T08:29:45.582Z,13.45
2019-05-16T08:30:45.714Z,13.49
2019-05-16T08:31:45.844Z,13.55
2019-05-16T08:32:45.975Z,13.58
2019-05-16T08:33:46.104Z,13.51
2019-05-16T08:34:46.236Z,13.55
2019-05-16T08:35:46.371Z,13.65
2019-05-16T08:36:46.495Z,13.64
2019-05-16T08:37:47.156Z,13.64
2019-05-16T08:38:46.772Z,13.71
2019-05-16T08:39:46.897Z,13.80
2019-05-16T08:41:04.578Z,13.78
2019-05-16T08:41:47.162Z,13.79
2019-05-16T08:42:47.284Z,13.82
2019-05-16T08:43:47.420Z,13.75
2019-05-16T08:44:47.562Z,13.72
2019-05-16T08:45:47.690Z,13.73
2019-05-16T08:46:54.714Z,13.65
2019-05-16T08:47:47.946Z,13.65
2019-05-16T08:48:48.080Z,13.68
2019-05-16T08:49:52.286Z,13.65
2019-05-16T08:50:53.885Z,13.65
2019-05-16T08:51:52.116Z,13.65
2019-05-16T08:52:52.886Z,13.63
2019-05-16T08:53:50.511Z,13.63
2019-05-16T08:54:51.043Z,13.51
2019-05-16T08:55:50.610Z,13.53
2019-05-16T08:56:51.091Z,13.57
2019-05-16T08:57:52.897Z,13.54
2019-05-16T08:58:54.108Z,13.65
2019-05-16T08:59:52.373Z,13.63
2019-05-16T09:00:55.226Z,13.63
2019-05-16T09:01:56.668Z,13.49
2019-05-16T09:02:52.531Z,13.57
2019-05-16T09:03:52.181Z,13.55
2019-05-16T09:04:53.459Z,13.58
2019-05-16T09:05:53.238Z,13.54
2019-05-16T09:06:52.633Z,13.60
2019-05-16T09:07:50.563Z,13.45
2019-05-16T09:08:50.692Z,13.53
2019-05-16T09:09:52.049Z,13.46
2019-05-16T09:11:00.809Z,13.40
2019-05-16T09:11:51.077Z,13.54
2019-05-16T09:12:51.218Z,13.47
2019-05-16T09:13:51.361Z,13.55
2019-05-16T09:14:51.489Z,13.64
2019-05-16T09:15:51.614Z,13.72
2019-05-16T09:16:51.739Z,13.61
2019-05-16T09:17:51.886Z,13.53
2019-05-16T09:18:52.063Z,13.47
2019-05-16T09:19:52.162Z,13.47
2019-05-16T09:20:52.271Z,13.46
2019-05-16T09:21:52.413Z,13.53
2019-05-16T09:22:52.540Z,13.57
2019-05-16T09:23:52.679Z,13.64
2019-05-16T09:24:52.804Z,13.57
2019-05-16T09:25:52.934Z,13.61
2019-05-16T09:26:53.064Z,13.63
2019-05-16T09:27:53.192Z,13.72
2019-05-16T09:28:53.337Z,13.68
2019-05-16T09:29:53.468Z,13.68
2019-05-16T09:30:53.596Z,13.73
2019-05-16T09:32:07.841Z,13.76
2019-05-16T09:32:53.864Z,13.65
2019-05-16T09:33:56.661Z,13.75
2019-05-16T09:34:56.966Z,13.68
2019-05-16T09:35:56.932Z,13.54
2019-05-16T09:36:58.048Z,13.46
2019-05-16T09:37:54.523Z,13.54
2019-05-16T09:38:57.658Z,13.55
2019-05-16T09:39:57.016Z,13.51
2019-05-16T09:40:57.024Z,13.45
2019-05-16T09:42:00.176Z,13.57
2019-05-16T09:42:56.811Z,13.58
2019-05-16T09:43:58.651Z,13.58
2019-05-16T09:44:57.789Z,13.53
2019-05-16T09:46:02.911Z,13.61
2019-05-16T09:46:56.996Z,13.57
2019-05-16T09:47:57.353Z,13.71
2019-05-16T09:49:13.107Z,13.71
2019-05-16T09:49:57.932Z,13.68
2019-05-16T09:50:57.674Z,13.76
2019-05-16T09:51:56.913Z,13.78
2019-05-16T09:52:56.645Z,13.72
2019-05-16T09:53:56.863Z,13.67
2019-05-16T09:54:57.818Z,13.67
2019-05-16T09:55:57.631Z,13.75
2019-05-16T09:56:57.272Z,13.71
2019-05-16T09:57:58.355Z,13.72
2019-05-16T09:58:57.577Z,13.63
2019-05-16T09:59:57.425Z,13.67
2019-05-16T10:00:57.795Z,13.65
2019-05-16T10:01:57.671Z,13.68
2019-05-16T10:02:58.067Z,13.64
2019-05-16T10:03:57.938Z,13.75
2019-05-16T10:04:58.280Z,13.64
2019-05-16T10:05:58.194Z,13.73
2019-05-16T10:06:58.328Z,13.65
2019-05-16T10:07:58.455Z,13.58
2019-05-16T10:08:58.582Z,13.63
2019-05-16T10:09:58.716Z,13.71
2019-05-16T10:10:58.852Z,13.64
2019-05-16T10:12:08.087Z,13.64
2019-05-16T10:12:59.122Z,13.67
2019-05-16T10:13:59.268Z,13.67
2019-05-16T10:14:59.890Z,13.67
2019-05-16T10:15:59.516Z,13.64
2019-05-16T10:16:59.651Z,13.71
2019-05-16T10:17:59.787Z,13.75
2019-05-16T10:18:59.909Z,13.72
2019-05-16T10:20:00.352Z,13.83
2019-05-16T10:21:00.166Z,13.76
2019-05-16T10:22:00.420Z,13.71
2019-05-16T10:23:00.477Z,13.79
2019-05-16T10:24:00.562Z,13.82
2019-05-16T10:25:00.692Z,13.73
2019-05-16T10:26:00.832Z,13.80
2019-05-16T10:27:00.950Z,13.90
2019-05-16T10:28:01.090Z,13.96
2019-05-16T10:29:01.282Z,13.93
2019-05-16T10:30:01.822Z,14.00
2019-05-16T10:31:01.473Z,13.85
2019-05-16T10:32:01.603Z,14.01
2019-05-16T10:33:01.765Z,13.96
2019-05-16T10:34:01.886Z,13.94
2019-05-16T10:35:02.012Z,13.94
2019-05-16T10:36:02.140Z,13.83
2019-05-16T10:37:02.293Z,13.80
2019-05-16T10:38:02.409Z,13.94
2019-05-16T10:39:02.588Z,13.79
2019-05-16T10:40:02.661Z,13.85
2019-05-16T10:41:02.852Z,13.88
2019-05-16T10:42:02.938Z,13.83
2019-05-16T10:43:03.085Z,13.76
2019-05-16T10:44:03.202Z,13.76
2019-05-16T10:45:03.348Z,13.76
2019-05-16T10:46:03.501Z,13.63
2019-05-16T10:47:03.638Z,13.71
2019-05-16T10:48:03.773Z,13.65
2019-05-16T10:49:03.893Z,13.51
2019-05-16T10:50:04.022Z,13.53
2019-05-16T10:51:04.157Z,13.51
2019-05-16T10:52:04.291Z,13.58
2019-05-16T10:53:25.853Z,13.47
2019-05-16T10:54:13.133Z,13.46
2019-05-16T10:55:04.759Z,13.43
2019-05-16T10:56:05.514Z,13.36
2019-05-16T10:57:07.692Z,13.26
2019-05-16T10:58:07.430Z,13.24
2019-05-16T10:59:46.895Z,13.21
2019-05-16T11:00:16.166Z,13.26
2019-05-16T11:01:21.763Z,13.09
2019-05-16T11:02:07.537Z,13.09
2019-05-16T11:03:06.500Z,12.98
2019-05-16T11:04:07.480Z,13.02
2019-05-16T11:05:22.556Z,12.95
2019-05-16T11:06:10.293Z,12.81
2019-05-16T11:07:06.312Z,12.88
2019-05-16T11:08:08.099Z,12.88
2019-05-16T11:09:06.625Z,12.91
2019-05-16T11:10:07.175Z,12.83
2019-05-16T11:11:06.845Z,12.83
2019-05-16T11:12:06.977Z,12.86
2019-05-16T11:13:08.193Z,12.81
2019-05-16T11:14:09.366Z,12.80
2019-05-16T11:15:10.973Z,12.80
2019-05-16T11:16:09.607Z,12.88
2019-05-16T11:17:13.311Z,12.83
2019-05-16T11:18:07.794Z,12.69
2019-05-16T11:19:17.145Z,12.65
2019-05-16T11:20:08.066Z,12.53
2019-05-16T11:21:08.179Z,12.53
2019-05-16T11:22:08.323Z,12.51
2019-05-16T11:23:08.567Z,12.51
2019-05-16T11:24:12.807Z,12.58
2019-05-16T11:25:21.119Z,12.43
2019-05-16T11:26:08.850Z,12.51
2019-05-16T11:27:08.947Z,12.47
2019-05-16T11:28:09.077Z,12.36
2019-05-16T11:29:09.207Z,12.43
2019-05-16T11:30:09.385Z,12.46
2019-05-16T11:31:09.486Z,12.33
2019-05-16T11:32:09.601Z,12.48
2019-05-16T11:33:09.733Z,12.26
2019-05-16T11:34:09.860Z,12.18
2019-05-16T11:35:09.989Z,12.26
2019-05-16T11:36:12.796Z,12.22
2019-05-16T11:37:10.245Z,12.43
2019-05-16T11:38:10.394Z,12.32
2019-05-16T11:39:10.501Z,12.44
2019-05-16T11:40:10.633Z,12.40
2019-05-16T11:41:10.781Z,12.38
2019-05-16T11:42:10.920Z,12.36
2019-05-16T11:43:18.009Z,12.43
2019-05-16T11:44:11.170Z,12.25
2019-05-16T11:45:11.307Z,12.26
2019-05-16T11:46:11.434Z,12.26
2019-05-16T11:47:11.556Z,12.26
2019-05-16T11:48:11.689Z,12.36
2019-05-16T11:49:11.836Z,12.36
2019-05-16T11:50:11.958Z,12.40
2019-05-16T11:51:12.096Z,12.38
2019-05-16T11:52:12.215Z,12.29
2019-05-16T11:53:12.426Z,12.40
2019-05-16T11:54:12.491Z,12.36
2019-05-16T11:55:12.619Z,12.25
2019-05-16T11:56:12.758Z,12.22
2019-05-16T11:57:12.897Z,12.29
2019-05-16T11:58:13.016Z,12.30
2019-05-16T11:59:13.211Z,12.25
2019-05-16T12:00:13.214Z,12.25
2019-05-16T12:01:13.350Z,12.25
2019-05-16T12:02:13.475Z,12.08
2019-05-16T12:03:13.616Z,12.25
2019-05-16T12:04:13.749Z,12.17
2019-05-16T12:05:13.863Z,12.25
2019-05-16T12:06:14.002Z,12.32
2019-05-16T12:07:14.152Z,12.17
2019-05-16T12:08:14.249Z,12.22
2019-05-16T12:09:14.375Z,12.26
2019-05-16T12:10:16.378Z,12.22
2019-05-16T12:11:14.634Z,12.18
2019-05-16T12:12:16.861Z,12.18
2019-05-16T12:13:25.173Z,12.11
2019-05-16T12:14:16.584Z,12.07
2019-05-16T12:15:19.442Z,12.10
2019-05-16T12:16:18.579Z,12.10
2019-05-16T12:17:16.621Z,11.99
2019-05-16T12:18:17.286Z,12.10
2019-05-16T12:19:18.189Z,12.17
2019-05-16T12:20:16.652Z,12.00
2019-05-16T12:21:17.228Z,12.13
2019-05-16T12:22:18.260Z,12.13
2019-05-16T12:23:17.155Z,12.14
2019-05-16T12:24:31.924Z,12.11
2019-05-16T12:25:16.861Z,12.13
2019-05-16T12:26:17.544Z,12.10
2019-05-16T12:27:17.287Z,12.15
2019-05-16T12:28:17.075Z,12.03
2019-05-16T12:29:17.382Z,12.10
2019-05-16T12:30:17.643Z,12.15
2019-05-16T12:31:17.583Z,12.18
2019-05-16T12:32:17.394Z,12.28
2019-05-16T12:33:18.649Z,12.23
2019-05-16T12:34:17.661Z,12.28
2019-05-16T12:35:17.823Z,12.28
2019-05-16T12:36:17.941Z,12.25
2019-05-16T12:37:18.033Z,12.21
2019-05-16T12:38:18.172Z,12.25
2019-05-16T12:39:18.340Z,12.11
2019-05-16T12:40:18.445Z,12.22
2019-05-16T12:41:18.566Z,12.23
2019-05-16T12:42:18.698Z,12.22
2019-05-16T12:43:18.834Z,12.10
2019-05-16T12:44:18.962Z,12.07
2019-05-16T12:45:19.098Z,12.14
2019-05-16T12:46:19.237Z,12.04
2019-05-16T12:47:19.359Z,12.07
2019-05-16T12:48:20.463Z,12.17
2019-05-16T12:49:19.616Z,12.17
2019-05-16T12:50:19.774Z,12.28
2019-05-16T12:51:19.893Z,12.21
2019-05-16T12:52:20.033Z,12.26
2019-05-16T12:53:23.511Z,12.26
2019-05-16T12:54:20.344Z,12.21